Terminal Aerodrome Forecast
Issued by NWS Wilmington, OH

Current Version | Previous Version | Text Only | Print | Product List | Glossary Off
Versions: 1 2 3 4 5 6 7 8 9 10 11 12 13 14 15 16 17 18 19 20 21 22 23 24 25 26 27 28

000
FTUS41 KILN 250800 AAA
TAFCVG
TAF AMD
KCVG 250855Z 2509/2612 24006KT P6SM SCT040
     FM251200 VRB04KT P6SM SCT250
     FM251900 04006KT P6SM SCT150 OVC250
     FM260200 03008KT P6SM OVC100
     FM260800 01009KT P6SM OVC035=

USA.gov is the U.S. government's official web portal to all federal, state and local government web resources and services.